Pagrindinis puslapis
METAR-TAF:

METAR-TAF

Oro uostai :

Maljorkos Palma, Ispanija

platuma: 39-33N, ilguma: 002-44E, Aukštis: 4 m

Dabartinis oras

Ataskaita buvo paskelbta 54 minutes, ne 04:00 UTC
Vėjas 2 kt iš Šiaurės/Šiaurės Rytų
Temperatūra 3°C
Drėgmė 100%
Slėgis 1030 hPa
Matomumas 10 km arba daugiau
nėra debesų žemiau 1500 m ir nėra kamuolinių lietaus debesų

METAR: LEPA 220400Z 03002KT CAVOK 03/03 Q1030 NOSIG

Laikas: 05:54 (04:54 UTC)

Prognozė

Ataskaita buvo paskelbta 5 valandos ir 54 minutes, ne 23:00 UTC
Prognozė galioja nuo 22 metu 00 UTC su 22 metu 24 UTC
Vėjas 5 kt iš Šiaurės Rytų
Matomumas 10 km arba daugiau
Mažai debesys ne aukštis 3000 ft
Laikinai
nuo 22 metu 00 UTC su 22 metu 09 UTC
Vėjas 3 kt nuo kintamojo kryptimis
Tikimybė 30% :
Laikinai
nuo 22 metu 03 UTC su 22 metu 07 UTC
Matomumas: 2000 m
rūkana
Tapsmas
nuo 22 metu 08 UTC su 22 metu 11 UTC
Vėjas 10 kt iš Pietvakarių

TAF: LEPA 212300Z 2200/2224 04005KT 9999 FEW030 TX18/2213Z TN06/2206Z TEMPO 2200/2209 VRB03KT PROB30 TEMPO 2203/2207 2000 BR BECMG 2208/2211 22010KT

Orai ataskaitas ir orų prognozės (METAR, TAF).

turimą stotys yra geltonos ir raudonos taškus žemėlapyje.

Perkelti pele per norėdami pamatyti stoties vardą.

Tada spustelėkite, norėdami matyti oro stebėjimo ir prognozės.

Norėdami pakeisti žemėlapį: spustelėkite ant žalios mygtukų su juodo kryžiaus žemyn,; žalią mygtuką su brūkšneliu, jei norite nutolinti; arba žalių rodyklių gretimoms žemėlapius.


METAR-TAF: